KEED

Needles Airport

Needles, California, USA
METAR KEED 221956Z AUTO 03009KT 10SM CLR 29/12 A2987 RMK AO2 SLP086 T02890117 $
Observed Flight Rules
Oct-22 @ 19:56 UTC (53 minutes ago) Visual Flight Rules
Wind Visibility Clouds
30° at 9 knots 10 miles
  • Clear skies
Temperatures Readings
Current 29°C / 84°F
Dewpoint 12°C / 54°F
Humidity 35%
Altimeter 29.87" Hg
Pressure 1008.6 hPa
Elevation 302
METAR KEED 221956Z AUTO 03009KT 10SM CLR 29/12 A2987 RMK AO2 SLP086 T02890117 $
Observed Flight Rules
Oct-22 @ 19:56 UTC
(53 minutes ago)
VFR
Wind Visibility
30° at 9 knots 10 miles
Clouds
  • Clear skies
Temperature Dewpoint
29°C / 84°F 12°C / 54°F
Humidity Altimeter Pressure
35% 29.87" Hg 1008.6 hPa